21°C Temp
'.PHP_EOL;
11°C Dewpoint
53% Humidity
Temperature
32 KM/H
20 MPH
17 KTS
360°
Due North

Wind
Clear
Pressure 1011.92 (hPa)- 29.88 (in)
Visibility 6.2 (mi) - 10 (km)

Current Conditions
NZWN
Location Wellington International 8(km)
Metar:
NZWN 170230Z AUTO 36017KT 9999 NCD 21/11 Q1012 NOSIG

Warning: gmmktime() expects parameter 1 to be integer, string given in /home/huttweat/public_html/pwsWD/metar_popup.php on line 288
Thu 1st January 12:00 pm

Airport
  Metar Aviation API Data Provided by https://www.checkwx.com/